ROTAER D-AMDT 37/19 Ver Mudanças

Teixeira de Freitas ( SNTF ) / TEIXEIRA DE FREITAS, BA 17 31 28S/039 40 06W
AD PUB Governo do Estado UTC-3 VFR L21 , L26 105 (344)

11 - L12 - ( 1460x30 ASPH 31/F/A/X/T L14 , L15 ) - L12 - 29

SBRE (CINDACTA 3)

RMK -

HORÁRIO DE FUNCIONAMENTO
  1. AD OPS VFR Noturna PPR e COOR (O/R) através TEL: (73) 2919955
INFORMAÇÃO METEOROLÓGICA FORNECIDA
  1. MET Estação de Radiodifusão Automática de Aeródromo (ERAA) FREQ 132.350MHZ.
  2. Usar código de localidade SNTF para acessar METAR/SPECI na REDEMET.
INFORMAÇÃO ADICIONAL
  1. Contatos telefônicos: (71) 3241-1982, (77) 8116-0829, (71) 9670-6361, (77) 9993-2336 e (77) 9909-5421 - São Francisco
TEMP (0)

Suplementos AIP (0)

NOTAM (0)

Nascer/Por do Sol

08:34

21:10


METAR

181500Z AUTO 06008KT 350V100 CAVOK 33/20 Q1015= 2020021815 - SPECI SNTF 181503Z AUTO 12011KT 080V150 CAVOK 32/20 Q1015=

TAF

181000Z 1812/1824 35008KT 8000 SCT027 TX33/1817Z TN26/1823Z BECMG 1822/1824 07005KT CAVOK RMK PAY=


Cartas (0)


Rotas Preferenciais (0)